Time;durP1;ratioP1;P1;durP2;ratioP2;P2;SDS_P1;SDS_P2;PMS_P1;PMS_P2;Temp;Humidity;BMP_temperature;BMP_pressure;BME280_temperature;BME280_humidity;BME280_pressure;Samples;Min_cycle;Max_cycle;Signal;HPM_P1;HPM_P2
2020/12/08 00:00:10;;;;;;;24.08;12.00;;;4.60;94.70;;;;;;5062677;28;20024;-89
2020/12/08 00:02:35;;;;;;;20.75;11.40;;;4.60;94.70;;;;;;5065516;28;20367;-89
2020/12/08 00:05:03;;;;;;;20.48;11.23;;;4.60;94.80;;;;;;5049204;28;20114;-88
2020/12/08 00:07:28;;;;;;;22.20;11.18;;;4.60;94.80;;;;;;5065269;28;20432;-89
2020/12/08 00:09:54;;;;;;;21.45;11.48;;;4.60;94.80;;;;;;5063333;28;20026;-89
2020/12/08 00:12:27;;;;;;;20.70;10.82;;;4.60;94.80;;;;;;5079038;28;20035;-89
2020/12/08 00:14:55;;;;;;;20.35;11.15;;;4.60;94.80;;;;;;5045202;28;20058;-89
2020/12/08 00:17:21;;;;;;;19.75;10.57;;;4.60;94.80;;;;;;5049612;28;20024;-89
2020/12/08 00:19:48;;;;;;;17.92;9.93;;;4.60;94.80;;;;;;5062055;28;20024;-89
2020/12/08 00:22:14;;;;;;;20.45;10.45;;;4.60;94.90;;;;;;5090243;28;20024;-89
2020/12/08 00:24:40;;;;;;;18.20;10.23;;;4.60;94.90;;;;;;5061598;28;20028;-88
2020/12/08 00:27:10;;;;;;;20.23;10.77;;;4.60;94.90;;;;;;5078871;28;20049;-89
2020/12/08 00:29:37;;;;;;;18.50;10.45;;;4.60;94.90;;;;;;5058634;28;20111;-88
2020/12/08 00:32:04;;;;;;;18.42;10.13;;;4.60;94.90;;;;;;5075178;28;20027;-89
2020/12/08 00:34:30;;;;;;;19.33;10.68;;;4.60;94.90;;;;;;5078994;28;20042;-89
2020/12/08 00:36:57;;;;;;;21.77;11.18;;;4.60;94.90;;;;;;5048541;28;20039;-89
2020/12/08 00:39:22;;;;;;;22.27;10.82;;;4.60;94.90;;;;;;5077290;28;20016;-88
2020/12/08 00:41:48;;;;;;;19.00;10.30;;;4.60;94.90;;;;;;5061575;28;20020;-89
2020/12/08 00:44:14;;;;;;;20.98;11.32;;;4.60;94.90;;;;;;5045138;28;20028;-89
2020/12/08 00:46:39;;;;;;;21.85;10.82;;;4.60;94.90;;;;;;5046273;28;20047;-89
2020/12/08 00:49:06;;;;;;;20.65;10.18;;;4.70;94.90;;;;;;5062821;28;20032;-89
2020/12/08 00:51:32;;;;;;;21.92;10.45;;;4.70;94.90;;;;;;5062977;28;20032;-89
2020/12/08 00:53:58;;;;;;;22.85;11.70;;;4.60;94.90;;;;;;5077880;28;20016;-89
2020/12/08 00:56:23;;;;;;;20.55;11.52;;;4.60;94.90;;;;;;5057052;28;20441;-89
2020/12/08 00:58:49;;;;;;;21.02;11.13;;;4.60;94.80;;;;;;5065943;28;20484;-93
2020/12/08 01:01:15;;;;;;;21.00;11.32;;;4.60;94.80;;;;;;5058450;28;20033;-93
2020/12/08 01:03:41;;;;;;;20.05;10.55;;;4.60;94.80;;;;;;5076743;28;20043;-93
2020/12/08 01:06:09;;;;;;;21.40;11.68;;;4.60;94.80;;;;;;5046952;28;20020;-93
2020/12/08 01:08:35;;;;;;;21.30;11.02;;;4.60;94.80;;;;;;5051219;28;20040;-93
2020/12/08 01:11:01;;;;;;;20.63;11.65;;;4.60;94.80;;;;;;5058418;28;20056;-91
2020/12/08 01:13:26;;;;;;;21.23;11.38;;;4.60;94.80;;;;;;5058353;28;20112;-92
2020/12/08 01:15:52;;;;;;;20.50;11.20;;;4.50;94.80;;;;;;5062458;28;20021;-92
2020/12/08 01:18:18;;;;;;;16.48;9.85;;;4.50;94.80;;;;;;5062210;28;20450;-92
2020/12/08 01:20:45;;;;;;;19.58;10.43;;;4.50;94.80;;;;;;5076231;28;20453;-92
2020/12/08 01:23:11;;;;;;;21.83;10.82;;;4.50;94.80;;;;;;5077878;28;20028;-92
2020/12/08 01:25:37;;;;;;;21.45;12.15;;;4.50;94.80;;;;;;5089653;28;20031;-91
2020/12/08 01:28:51;;;;;;;24.92;12.50;;;4.50;94.80;;;;;;5056961;28;20051;-92
2020/12/08 01:31:17;;;;;;;22.45;10.70;;;4.50;94.80;;;;;;5096603;28;20078;-92
2020/12/08 01:33:43;;;;;;;21.85;12.68;;;4.50;94.80;;;;;;5061357;28;20100;-92
2020/12/08 01:36:09;;;;;;;22.75;11.77;;;4.50;94.80;;;;;;5057953;28;20020;-92
2020/12/08 01:38:34;;;;;;;23.30;11.70;;;4.40;94.70;;;;;;5040361;28;20028;-91
2020/12/08 01:41:00;;;;;;;24.98;13.32;;;4.40;94.70;;;;;;5079618;28;20094;-91
2020/12/08 01:43:26;;;;;;;22.15;11.65;;;4.50;94.70;;;;;;5043186;28;20113;-92
2020/12/08 01:45:52;;;;;;;20.38;10.95;;;4.40;94.70;;;;;;5072716;28;20024;-93
2020/12/08 01:48:18;;;;;;;20.80;10.65;;;4.40;94.70;;;;;;5062363;28;20021;-93
2020/12/08 01:50:45;;;;;;;21.15;11.32;;;4.40;94.70;;;;;;5067826;28;20473;-93
2020/12/08 01:53:11;;;;;;;18.38;10.18;;;4.40;94.70;;;;;;5046528;28;20029;-93
2020/12/08 01:55:40;;;;;;;22.60;10.27;;;4.30;94.70;;;;;;5077625;28;20027;-94
2020/12/08 01:58:20;;;;;;;19.65;9.75;;;4.30;94.70;;;;;;5046457;28;20389;-93
2020/12/08 02:00:49;;;;;;;20.40;11.15;;;4.30;95.00;;;;;;5080276;28;20458;-93
2020/12/08 02:03:16;;;;;;;19.38;10.75;;;4.30;94.70;;;;;;5052273;28;20063;-93
2020/12/08 02:05:42;;;;;;;19.48;11.20;;;4.30;94.70;;;;;;5083398;28;20084;-93
2020/12/08 02:08:08;;;;;;;21.83;11.48;;;4.20;94.60;;;;;;5079643;28;20015;-92
2020/12/08 02:10:34;;;;;;;21.98;11.90;;;4.20;94.60;;;;;;5071227;28;20024;-92
2020/12/08 02:13:10;;;;;;;20.10;11.65;;;4.20;94.60;;;;;;5041743;28;20405;-92
2020/12/08 02:15:36;;;;;;;19.60;11.00;;;4.20;94.60;;;;;;5061249;28;20017;-93
2020/12/08 02:21:16;;;;;;;22.70;11.38;;;4.10;94.60;;;;;;5044911;23;20053;-88
2020/12/08 02:24:11;;;;;;;22.05;11.02;;;4.10;94.60;;;;;;4994415;28;20089;-89
2020/12/08 02:26:55;;;;;;;19.30;10.75;;;4.00;94.60;;;;;;4991478;28;20041;-89
2020/12/08 02:29:24;;;;;;;24.55;12.00;;;4.10;94.60;;;;;;4979846;28;20020;-87
2020/12/08 02:32:11;;;;;;;19.05;10.45;;;4.10;94.60;;;;;;5007906;28;20124;-86
2020/12/08 02:34:50;;;;;;;18.92;11.15;;;4.00;94.60;;;;;;4994108;28;20046;-87
2020/12/08 02:37:30;;;;;;;22.17;11.32;;;4.00;94.70;;;;;;4966155;28;20035;-86
2020/12/08 02:40:12;;;;;;;19.15;10.45;;;4.00;94.70;;;;;;4995937;28;20085;-86
2020/12/08 02:43:07;;;;;;;19.63;10.85;;;4.00;94.70;;;;;;4995612;28;20029;-87
2020/12/08 02:45:40;;;;;;;19.70;10.20;;;4.00;94.70;;;;;;4995359;28;20463;-86
2020/12/08 02:48:12;;;;;;;20.40;11.15;;;4.00;94.70;;;;;;5011915;28;20120;-87
2020/12/08 02:50:38;;;;;;;22.38;11.35;;;4.00;94.70;;;;;;4995525;28;20017;-87
2020/12/08 02:53:11;;;;;;;19.95;10.60;;;4.00;94.70;;;;;;5011307;28;20487;-87
2020/12/08 02:55:36;;;;;;;19.55;9.60;;;3.90;94.70;;;;;;5012525;28;20030;-87
2020/12/08 02:58:02;;;;;;;18.85;10.55;;;3.90;94.70;;;;;;4998928;28;20097;-87
2020/12/08 03:00:29;;;;;;;18.15;9.90;;;3.90;94.70;;;;;;4988436;28;20026;-87
2020/12/08 03:03:02;;;;;;;20.30;9.45;;;3.90;94.70;;;;;;5013049;28;20030;-86
2020/12/08 03:05:27;;;;;;;21.48;10.18;;;3.90;94.70;;;;;;4975465;28;20042;-87
2020/12/08 03:07:54;;;;;;;19.85;10.90;;;3.90;94.70;;;;;;4973034;28;20142;-88
2020/12/08 03:10:20;;;;;;;20.08;9.70;;;3.90;94.70;;;;;;4964264;28;20448;-87
2020/12/08 03:13:09;;;;;;;18.77;9.50;;;3.90;94.70;;;;;;4988916;28;20072;-87
2020/12/08 03:15:35;;;;;;;20.13;10.13;;;3.90;94.70;;;;;;4974023;28;20030;-87
2020/12/08 03:18:18;;;;;;;20.00;10.18;;;3.80;94.60;;;;;;4943265;28;20103;-87
2020/12/08 03:20:45;;;;;;;18.70;9.27;;;3.80;94.60;;;;;;4963872;28;20054;-87
2020/12/08 03:23:11;;;;;;;19.25;9.60;;;3.80;94.70;;;;;;4974031;28;20129;-87
2020/12/08 03:25:40;;;;;;;18.13;9.75;;;3.80;94.70;;;;;;4969128;28;20132;-87
2020/12/08 03:28:13;;;;;;;20.23;9.82;;;3.80;94.70;;;;;;4966315;28;20039;-87
2020/12/08 03:30:38;;;;;;;19.30;9.35;;;3.70;94.60;;;;;;4968957;28;20537;-86
2020/12/08 03:36:21;;;;;;;21.77;9.55;;;3.70;94.60;;;;;;5005197;28;20075;-87
2020/12/08 03:39:07;;;;;;;17.40;9.23;;;3.70;94.60;;;;;;4975676;28;20042;-87
2020/12/08 03:41:37;;;;;;;20.30;8.85;;;3.70;94.70;;;;;;4959309;28;20115;-87
2020/12/08 03:44:12;;;;;;;18.27;8.63;;;3.70;94.70;;;;;;4975010;28;20074;-87
2020/12/08 03:46:39;;;;;;;16.30;8.80;;;3.70;94.70;;;;;;4975012;28;20034;-87
2020/12/08 03:49:06;;;;;;;19.50;9.25;;;3.70;94.70;;;;;;4958759;28;20047;-86
2020/12/08 03:51:40;;;;;;;16.42;9.13;;;3.70;94.70;;;;;;4974770;28;20035;-87
2020/12/08 03:54:07;;;;;;;19.60;9.40;;;3.60;94.70;;;;;;4949007;28;20054;-86
2020/12/08 03:56:32;;;;;;;17.25;9.07;;;3.60;94.60;;;;;;4974448;28;20026;-86
2020/12/08 03:58:58;;;;;;;21.10;9.95;;;3.60;94.60;;;;;;4947251;28;20166;-87
2020/12/08 04:01:24;;;;;;;21.30;10.52;;;3.60;94.60;;;;;;4966972;28;20109;-87
2020/12/08 04:04:22;;;;;;;21.58;10.25;;;3.60;94.60;;;;;;4959615;28;20039;-86
2020/12/08 04:06:49;;;;;;;20.10;9.82;;;3.60;94.60;;;;;;4959296;28;20035;-86
2020/12/08 04:09:23;;;;;;;21.92;10.75;;;3.60;94.60;;;;;;4948951;28;20038;-86
2020/12/08 04:11:50;;;;;;;19.00;9.93;;;3.50;94.60;;;;;;4998584;28;20030;-86
2020/12/08 04:14:15;;;;;;;19.15;9.73;;;3.50;94.60;;;;;;4978858;28;20041;-86
2020/12/08 04:16:51;;;;;;;20.58;10.18;;;3.50;94.60;;;;;;4982449;28;20022;-86
2020/12/08 04:19:18;;;;;;;19.50;9.27;;;3.50;94.60;;;;;;4998250;28;20046;-86
2020/12/08 04:21:44;;;;;;;20.25;9.93;;;3.50;94.60;;;;;;4995163;28;20041;-86
2020/12/08 04:24:09;;;;;;;15.60;8.85;;;3.40;94.60;;;;;;4995153;28;20361;-86
2020/12/08 04:26:54;;;;;;;18.30;9.57;;;3.50;94.60;;;;;;4976139;28;20058;-87
2020/12/08 04:29:21;;;;;;;22.27;10.93;;;3.40;94.60;;;;;;4980098;28;20514;-86
2020/12/08 04:32:06;;;;;;;19.05;9.18;;;3.40;94.70;;;;;;4987008;28;20104;-86
2020/12/08 04:34:33;;;;;;;21.75;10.35;;;3.40;94.60;;;;;;4959225;28;20070;-86
2020/12/08 04:37:01;;;;;;;18.90;9.93;;;3.40;94.60;;;;;;4953426;28;20598;-86
2020/12/08 04:39:27;;;;;;;20.10;10.82;;;3.40;94.60;;;;;;4973933;28;20042;-87
2020/12/08 04:42:41;;;;;;;21.65;10.38;;;3.40;94.60;;;;;;4967598;28;20034;-86
2020/12/08 04:45:07;;;;;;;19.42;9.82;;;3.40;94.60;;;;;;4946770;28;20416;-86
2020/12/08 04:48:14;;;;;;;18.45;9.70;;;3.30;94.60;;;;;;4958157;28;20034;-89
2020/12/08 04:51:08;;;;;;;19.75;10.07;;;3.30;94.70;;;;;;4954611;28;20125;-86
2020/12/08 04:53:38;;;;;;;20.70;9.27;;;3.30;94.70;;;;;;4912315;29;20059;-86
2020/12/08 04:56:29;;;;;;;22.20;9.65;;;3.30;94.70;;;;;;4930496;29;20050;-86
2020/12/08 04:58:56;;;;;;;;;;;3.30;94.70;;;;;;4920404;29;20474;-86
2020/12/08 05:01:32;;;;;;;20.05;9.52;;;3.30;94.70;;;;;;4917983;29;20352;-86
2020/12/08 05:04:08;;;;;;;21.50;10.38;;;3.30;94.80;;;;;;4925791;29;20122;-86
2020/12/08 05:06:34;;;;;;;24.85;11.27;;;3.30;94.80;;;;;;4890961;29;20082;-86
2020/12/08 05:09:09;;;;;;;23.45;10.63;;;3.30;94.90;;;;;;4916967;29;20067;-86
2020/12/08 05:11:43;;;;;;;20.70;11.10;;;3.30;94.80;;;;;;4918907;29;20039;-86
2020/12/08 05:14:09;;;;;;;24.52;11.55;;;3.40;94.90;;;;;;4924917;29;20102;-89
2020/12/08 05:16:35;;;;;;;23.67;12.25;;;3.30;94.80;;;;;;4915829;29;20055;-86
2020/12/08 05:19:19;;;;;;;23.83;12.02;;;3.30;94.80;;;;;;4892565;29;20063;-86
2020/12/08 05:21:51;;;;;;;26.27;12.13;;;3.30;94.80;;;;;;4954213;28;20098;-86
2020/12/08 05:24:32;;;;;;;23.67;11.18;;;3.30;94.80;;;;;;4938357;29;20122;-86
2020/12/08 05:27:18;;;;;;;23.25;12.30;;;3.30;94.80;;;;;;4919659;29;20039;-86
2020/12/08 05:29:44;;;;;;;25.20;12.80;;;3.30;94.80;;;;;;4934868;29;20055;-86
2020/12/08 05:32:33;;;;;;;23.65;12.48;;;3.30;94.80;;;;;;4919030;29;20089;-86
2020/12/08 05:35:15;;;;;;;21.20;12.18;;;3.30;94.80;;;;;;4927517;29;20433;-87
2020/12/08 05:37:45;;;;;;;22.33;11.93;;;3.30;94.80;;;;;;4935244;29;20059;-87
2020/12/08 05:43:50;;;;;;;22.00;11.03;;;3.30;94.80;;;;;;4873880;29;20068;-87
2020/12/08 05:46:43;;;;;;;27.92;13.23;;;3.30;94.80;;;;;;4914734;29;20126;-86
2020/12/08 05:49:35;;;;;;;26.27;13.30;;;3.30;94.80;;;;;;4893673;29;20176;-87
2020/12/08 05:52:09;;;;;;;28.08;14.38;;;3.30;94.80;;;;;;4915806;29;20048;-87
2020/12/08 05:54:43;;;;;;;25.17;13.00;;;3.30;94.80;;;;;;4936520;29;20051;-87
2020/12/08 05:57:57;;;;;;;27.63;14.27;;;3.30;94.80;;;;;;4917954;29;20032;-87
2020/12/08 06:00:32;;;;;;;25.73;13.00;;;3.30;94.80;;;;;;4906165;29;20032;-87
2020/12/08 06:03:18;;;;;;;28.50;13.68;;;3.30;94.90;;;;;;4899643;29;20105;-87
2020/12/08 06:06:09;;;;;;;24.67;13.15;;;3.30;94.80;;;;;;4899742;29;20028;-87
2020/12/08 06:08:51;;;;;;;28.45;13.65;;;3.30;94.90;;;;;;4931031;29;20024;-88
2020/12/08 06:11:40;;;;;;;27.73;13.63;;;3.30;94.90;;;;;;4899381;29;20442;-87
2020/12/08 06:14:15;;;;;;;26.52;13.98;;;3.30;94.90;;;;;;4888955;29;20259;-87
2020/12/08 06:16:40;;;;;;;25.25;13.40;;;3.30;94.90;;;;;;4883752;29;20608;-88
2020/12/08 06:19:10;;;;;;;27.60;13.02;;;3.30;95.00;;;;;;4903639;29;20056;-87
2020/12/08 06:22:14;;;;;;;27.13;14.23;;;3.30;95.00;;;;;;4941618;28;20050;-86
2020/12/08 06:25:14;;;;;;;25.45;14.35;;;3.30;95.00;;;;;;4972673;28;20082;-86
2020/12/08 06:27:41;;;;;;;27.27;14.38;;;3.40;95.00;;;;;;4972596;28;20146;-87
2020/12/08 06:30:07;;;;;;;28.23;14.02;;;3.40;95.00;;;;;;4952728;29;20043;-86
2020/12/08 06:33:07;;;;;;;22.73;12.70;;;3.40;95.10;;;;;;4945562;28;20035;-87
2020/12/08 06:35:38;;;;;;;24.25;12.25;;;3.40;95.10;;;;;;4933516;29;20043;-88
2020/12/08 06:38:18;;;;;;;27.88;13.60;;;3.40;95.10;;;;;;4904965;29;20396;-88
2020/12/08 06:41:00;;;;;;;24.38;13.48;;;3.40;95.10;;;;;;4933986;29;20039;-88
2020/12/08 06:43:45;;;;;;;27.15;13.93;;;3.40;95.10;;;;;;4917810;29;20469;-86
2020/12/08 06:46:17;;;;;;;29.33;13.98;;;3.40;95.10;;;;;;4917965;29;20023;-86
2020/12/08 06:49:01;;;;;;;29.77;15.05;;;3.40;95.10;;;;;;4915130;29;20406;-86
2020/12/08 06:51:35;;;;;;;27.38;14.10;;;3.40;95.10;;;;;;4931468;29;20040;-86
2020/12/08 06:54:20;;;;;;;25.98;13.73;;;3.40;95.10;;;;;;4917867;29;20090;-87
2020/12/08 06:56:46;;;;;;;30.23;15.98;;;3.40;95.10;;;;;;4886733;29;20033;-86
2020/12/08 06:59:53;;;;;;;32.25;16.15;;;3.40;95.10;;;;;;4899749;29;20037;-86
2020/12/08 07:02:19;;;;;;;32.03;16.25;;;3.50;95.10;;;;;;4901630;29;20418;-87
2020/12/08 07:04:46;;;;;;;34.33;18.83;;;3.50;95.10;;;;;;4918203;29;20032;-86
2020/12/08 07:07:37;;;;;;;36.15;19.08;;;3.50;95.00;;;;;;4933550;29;20039;-86
2020/12/08 07:10:03;;;;;;;36.25;18.30;;;3.50;95.10;;;;;;4945473;28;20050;-86
2020/12/08 07:13:22;;;;;;;39.88;19.52;;;3.50;95.10;;;;;;4932183;29;20040;-86
2020/12/08 07:16:36;;;;;;;32.40;16.08;;;3.50;95.10;;;;;;4927271;29;20063;-86
2020/12/08 07:19:11;;;;;;;31.77;15.77;;;3.50;95.10;;;;;;4921500;29;20039;-86
2020/12/08 07:21:42;;;;;;;33.50;16.65;;;3.50;95.10;;;;;;4921726;29;20056;-87
2020/12/08 07:24:11;;;;;;;37.40;18.40;;;3.50;95.10;;;;;;4923142;29;20027;-89
2020/12/08 07:26:38;;;;;;;32.03;16.30;;;3.50;95.10;;;;;;4914049;29;20126;-87
2020/12/08 07:29:55;;;;;;;37.80;18.45;;;3.50;95.20;;;;;;4925348;29;20043;-86
2020/12/08 07:32:29;;;;;;;36.80;17.45;;;3.50;95.10;;;;;;4931369;29;20536;-86
2020/12/08 07:35:27;;;;;;;33.33;16.60;;;3.50;95.20;;;;;;4924173;29;20040;-86
2020/12/08 07:38:31;;;;;;;33.28;16.00;;;3.50;95.20;;;;;;4923980;29;20035;-87
2020/12/08 07:41:41;;;;;;;34.70;16.70;;;3.50;95.20;;;;;;4936897;29;20035;-86
2020/12/08 07:44:22;;;;;;;34.90;16.92;;;3.50;95.10;;;;;;4938156;29;20173;-87
2020/12/08 07:46:57;;;;;;;39.05;17.88;;;3.50;95.10;;;;;;4919448;29;20136;-87
2020/12/08 07:49:24;;;;;;;31.33;15.85;;;3.50;95.10;;;;;;4917719;29;20039;-87
2020/12/08 07:52:11;;;;;;;34.22;15.02;;;3.50;95.20;;;;;;4925965;29;20043;-87
2020/12/08 07:54:38;;;;;;;35.22;15.75;;;3.60;95.30;;;;;;4939120;29;20032;-87
2020/12/08 07:57:22;;;;;;;26.52;14.60;;;3.60;95.30;;;;;;4921422;29;20147;-87
2020/12/08 07:59:49;;;;;;;29.77;15.27;;;3.60;95.30;;;;;;4919907;28;20154;-87
2020/12/08 08:02:21;;;;;;;31.08;15.45;;;3.60;95.30;;;;;;4978462;28;20476;-87
2020/12/08 08:04:47;;;;;;;36.10;17.08;;;3.60;95.30;;;;;;4961949;28;20411;-87
2020/12/08 08:07:16;;;;;;;33.47;16.23;;;3.60;95.30;;;;;;4986097;28;20038;-88
2020/12/08 08:09:43;;;;;;;36.03;16.60;;;3.60;95.30;;;;;;4964440;28;20042;-87
2020/12/08 08:12:10;;;;;;;36.65;17.70;;;3.70;95.30;;;;;;4965748;28;20428;-88
2020/12/08 08:14:35;;;;;;;33.30;16.20;;;3.60;95.20;;;;;;4992319;28;20058;-88
2020/12/08 08:20:24;;;;;;;38.53;17.98;;;3.70;95.30;;;;;;4994623;28;20048;-87
2020/12/08 08:22:50;;;;;;;35.58;17.08;;;3.70;95.20;;;;;;4997311;28;20030;-88
2020/12/08 08:25:16;;;;;;;34.08;16.30;;;3.70;95.20;;;;;;4981508;28;20087;-88
2020/12/08 08:27:52;;;;;;;37.72;16.70;;;3.70;95.30;;;;;;4998360;28;20029;-89
2020/12/08 08:30:18;;;;;;;32.58;15.98;;;3.70;95.30;;;;;;5007222;28;20515;-88
2020/12/08 08:32:43;;;;;;;34.15;16.83;;;3.70;95.30;;;;;;4998060;28;20050;-87
2020/12/08 08:35:09;;;;;;;31.85;15.30;;;3.70;95.30;;;;;;5067903;23;20057;-90
2020/12/08 08:37:35;;;;;;;35.85;16.00;;;3.70;95.40;;;;;;5012596;28;20400;-89
2020/12/08 08:40:01;;;;;;;31.23;15.48;;;3.80;95.40;;;;;;4997636;28;20041;-89
2020/12/08 08:42:26;;;;;;;30.02;14.98;;;3.70;95.40;;;;;;5013983;28;20034;-89
2020/12/08 08:44:52;;;;;;;30.20;14.48;;;3.80;95.40;;;;;;5014757;28;20026;-89
2020/12/08 08:47:17;;;;;;;31.65;14.88;;;3.80;95.40;;;;;;4997584;28;20107;-89
2020/12/08 08:49:43;;;;;;;33.45;16.17;;;3.80;95.40;;;;;;5025973;28;20033;-90
2020/12/08 08:52:09;;;;;;;33.13;16.08;;;3.80;95.70;;;;;;4981791;28;20476;-89
2020/12/08 08:54:34;;;;;;;31.38;15.70;;;3.80;95.40;;;;;;5014121;28;20036;-89
2020/12/08 08:57:00;;;;;;;31.75;15.95;;;3.80;95.40;;;;;;4996693;28;20042;-89
2020/12/08 08:59:26;;;;;;;32.10;16.17;;;3.90;95.50;;;;;;4993835;28;20054;-89
2020/12/08 09:01:51;;;;;;;37.40;18.27;;;3.90;95.40;;;;;;5012761;28;20117;-89
2020/12/08 09:04:17;;;;;;;38.08;17.45;;;3.90;95.40;;;;;;4992908;28;20431;-89
2020/12/08 09:06:43;;;;;;;37.45;17.65;;;3.90;95.40;;;;;;4989213;28;20033;-91
2020/12/08 09:09:12;;;;;;;39.63;18.50;;;3.90;95.40;;;;;;5013678;28;20113;-90
2020/12/08 09:11:38;;;;;;;34.97;17.95;;;3.90;95.50;;;;;;4984386;28;20420;-89
2020/12/08 09:14:05;;;;;;;36.95;17.20;;;3.90;95.50;;;;;;5009681;28;20060;-90
2020/12/08 09:16:31;;;;;;;34.03;16.45;;;4.00;95.50;;;;;;5017377;28;20053;-89
2020/12/08 09:18:57;;;;;;;32.15;16.23;;;4.00;95.50;;;;;;5014346;28;20109;-88
2020/12/08 09:21:22;;;;;;;37.58;17.75;;;4.00;95.50;;;;;;4988104;28;20132;-90
2020/12/08 09:23:48;;;;;;;40.55;18.75;;;4.00;95.50;;;;;;5013556;28;20040;-90
2020/12/08 09:26:14;;;;;;;39.13;17.77;;;4.00;95.50;;;;;;4980778;28;20029;-88
2020/12/08 09:28:39;;;;;;;39.13;17.98;;;4.00;95.50;;;;;;4995640;28;20497;-88
2020/12/08 09:31:05;;;;;;;36.55;17.08;;;4.00;95.50;;;;;;4999003;28;20038;-89
2020/12/08 09:33:31;;;;;;;36.30;18.83;;;4.10;95.50;;;;;;4990326;28;20057;-86
2020/12/08 09:35:57;;;;;;;35.42;16.60;;;4.10;95.50;;;;;;4993061;28;20026;-88
2020/12/08 09:38:22;;;;;;;38.92;18.23;;;4.10;95.50;;;;;;4998302;28;20397;-88
2020/12/08 09:40:48;;;;;;;36.47;17.15;;;4.10;95.50;;;;;;4999416;28;20037;-88
2020/12/08 09:43:14;;;;;;;39.08;18.85;;;4.10;95.60;;;;;;4999131;28;20117;-89
2020/12/08 09:45:39;;;;;;;44.30;19.30;;;4.10;95.50;;;;;;4983264;28;20368;-87
2020/12/08 09:48:05;;;;;;;42.08;19.02;;;4.20;95.60;;;;;;4999280;28;20032;-87
2020/12/08 09:50:31;;;;;;;34.65;17.58;;;4.20;95.60;;;;;;4986655;28;20357;-88
2020/12/08 09:52:57;;;;;;;38.50;18.83;;;4.20;95.60;;;;;;5006249;28;20018;-87
2020/12/08 09:55:23;;;;;;;39.05;18.77;;;4.20;95.60;;;;;;4999343;28;20471;-88
2020/12/08 09:57:48;;;;;;;38.95;17.77;;;4.20;95.60;;;;;;4999403;28;20029;-88
2020/12/08 10:00:14;;;;;;;43.85;20.13;;;4.20;95.70;;;;;;4999150;28;20437;-88
2020/12/08 10:02:40;;;;;;;46.55;20.45;;;4.30;95.70;;;;;;4971901;28;20030;-88
2020/12/08 10:05:05;;;;;;;40.47;18.60;;;4.30;95.70;;;;;;4997258;28;20068;-88
2020/12/08 10:07:31;;;;;;;38.05;17.83;;;4.30;95.70;;;;;;4999111;28;20033;-88
2020/12/08 10:09:57;;;;;;;41.55;19.10;;;4.30;95.70;;;;;;5011041;28;20061;-88
2020/12/08 10:12:22;;;;;;;36.25;17.67;;;4.40;95.70;;;;;;4985117;28;20022;-87
2020/12/08 10:14:48;;;;;;;40.50;18.73;;;4.40;95.70;;;;;;4996455;28;20034;-88
2020/12/08 10:17:15;;;;;;;34.67;16.75;;;4.40;95.70;;;;;;5000581;28;20030;-88
2020/12/08 10:19:42;;;;;;;35.53;17.83;;;4.40;95.70;;;;;;4995614;28;20026;-88
2020/12/08 10:22:08;;;;;;;36.05;17.75;;;4.50;95.80;;;;;;5014929;28;20109;-88
2020/12/08 10:24:34;;;;;;;41.33;18.27;;;4.50;95.80;;;;;;4998832;28;20112;-88
2020/12/08 10:26:59;;;;;;;42.28;21.05;;;4.50;95.70;;;;;;4982683;28;20386;-88
2020/12/08 10:29:25;;;;;;;44.78;21.30;;;4.60;95.80;;;;;;4991323;28;20504;-89
2020/12/08 10:31:51;;;;;;;40.90;19.60;;;4.50;95.70;;;;;;5013728;28;20037;-88
2020/12/08 10:34:19;;;;;;;46.58;22.10;;;4.60;95.70;;;;;;4994643;28;20052;-88
2020/12/08 10:36:46;;;;;;;43.92;21.52;;;4.60;95.70;;;;;;4988668;28;20024;-88
2020/12/08 10:39:12;;;;;;;48.17;21.50;;;4.70;95.80;;;;;;5014884;28;20029;-88
2020/12/08 10:41:38;;;;;;;45.85;21.50;;;4.70;95.80;;;;;;5015177;28;20334;-88
2020/12/08 10:44:06;;;;;;;51.38;23.02;;;4.70;95.80;;;;;;5015126;28;20167;-89
2020/12/08 10:46:35;;;;;;;45.03;22.30;;;4.80;96.10;;;;;;4999119;28;20029;-89
2020/12/08 10:49:01;;;;;;;47.47;23.58;;;4.80;95.80;;;;;;4999593;28;20053;-88
2020/12/08 10:51:26;;;;;;;46.03;22.10;;;4.80;95.80;;;;;;5015534;28;20403;-88
2020/12/08 10:53:52;;;;;;;51.13;24.05;;;4.90;95.80;;;;;;4996385;28;20399;-87
2020/12/08 10:56:25;;;;;;;51.50;24.58;;;4.90;95.80;;;;;;4997089;28;20083;-89
2020/12/08 10:58:53;;;;;;;45.42;22.42;;;4.90;95.80;;;;;;5000343;28;20041;-89
2020/12/08 11:01:23;;;;;;;52.03;24.15;;;4.90;95.80;;;;;;5009574;28;20038;-88
2020/12/08 11:03:50;;;;;;;44.63;20.60;;;5.00;95.80;;;;;;5008742;28;20018;-88
2020/12/08 11:06:34;;;;;;;39.55;20.00;;;5.00;95.80;;;;;;5002869;28;20037;-88
2020/12/08 11:09:00;;;;;;;44.13;21.85;;;5.00;95.80;;;;;;4990590;28;20026;-87
2020/12/08 11:11:27;;;;;;;49.90;23.52;;;5.00;95.80;;;;;;5014501;28;20038;-87
2020/12/08 11:13:57;;;;;;;48.25;24.52;;;5.10;95.80;;;;;;5030595;28;20025;-87
2020/12/08 11:16:24;;;;;;;52.92;25.00;;;5.10;95.80;;;;;;4994924;28;20491;-88
2020/12/08 11:18:50;;;;;;;53.25;24.73;;;5.10;95.80;;;;;;5008266;28;20502;-87
2020/12/08 11:21:25;;;;;;;51.75;23.40;;;5.20;95.80;;;;;;4987055;28;20030;-87
2020/12/08 11:23:51;;;;;;;46.60;23.13;;;5.20;95.80;;;;;;4992458;28;20037;-87
2020/12/08 11:26:17;;;;;;;55.53;26.08;;;5.30;95.90;;;;;;4984933;28;20034;-87
2020/12/08 11:28:43;;;;;;;49.03;26.33;;;5.30;95.80;;;;;;5011147;28;20025;-87
2020/12/08 11:31:08;;;;;;;59.45;29.30;;;5.40;95.80;;;;;;5012547;28;20033;-86
2020/12/08 11:33:34;;;;;;;47.45;25.25;;;5.40;95.80;;;;;;4980408;28;20028;-87
2020/12/08 11:36:00;;;;;;;43.22;22.75;;;5.40;95.80;;;;;;4975493;28;20444;-88
2020/12/08 11:38:27;;;;;;;44.20;22.48;;;5.40;95.80;;;;;;4982462;28;20030;-87
2020/12/08 11:40:53;;;;;;;49.42;22.90;;;5.50;95.80;;;;;;4999336;28;20472;-88
2020/12/08 11:43:19;;;;;;;45.80;23.45;;;5.50;95.80;;;;;;4994423;28;20036;-87
2020/12/08 11:45:46;;;;;;;45.35;22.77;;;5.50;95.80;;;;;;5014461;28;20045;-87
2020/12/08 11:48:12;;;;;;;44.05;21.67;;;5.50;95.80;;;;;;4997858;28;20117;-87
2020/12/08 11:50:38;;;;;;;43.25;22.00;;;5.60;95.80;;;;;;5007477;28;20021;-87
2020/12/08 11:53:03;;;;;;;42.38;21.30;;;5.60;95.70;;;;;;5001220;28;20028;-87
2020/12/08 11:55:29;;;;;;;42.45;21.27;;;5.70;95.80;;;;;;4983850;28;20551;-87
2020/12/08 11:57:55;;;;;;;41.05;20.77;;;5.60;95.70;;;;;;4983420;28;20100;-87
2020/12/08 12:00:20;;;;;;;43.22;20.98;;;5.70;95.70;;;;;;4997882;28;20152;-87
2020/12/08 12:02:46;;;;;;;39.30;21.73;;;5.70;95.80;;;;;;4997719;28;20499;-87
2020/12/08 12:05:11;;;;;;;46.58;22.95;;;5.70;95.70;;;;;;4999685;28;20390;-87
2020/12/08 12:07:37;;;;;;;45.15;22.30;;;5.70;95.60;;;;;;5001472;28;20036;-87
2020/12/08 12:10:04;;;;;;;40.55;20.30;;;5.70;95.60;;;;;;4985037;28;20430;-88
2020/12/08 12:12:29;;;;;;;43.58;21.70;;;5.70;95.60;;;;;;5016764;28;20379;-88
2020/12/08 12:14:55;;;;;;;45.83;21.02;;;5.70;95.60;;;;;;4987422;28;20025;-88
2020/12/08 12:17:21;;;;;;;45.92;22.50;;;5.70;95.60;;;;;;5011493;28;20021;-88
2020/12/08 12:19:46;;;;;;;44.72;22.52;;;5.80;95.60;;;;;;4994495;28;20095;-88
2020/12/08 12:22:12;;;;;;;43.85;22.02;;;5.80;95.90;;;;;;4996895;28;20030;-88
2020/12/08 12:24:38;;;;;;;48.80;23.73;;;5.80;95.60;;;;;;5017263;28;20029;-88
2020/12/08 12:27:04;;;;;;;50.95;23.83;;;5.80;95.60;;;;;;5017200;28;20377;-89
2020/12/08 12:29:31;;;;;;;45.28;22.73;;;5.80;95.60;;;;;;4994534;28;20061;-88
2020/12/08 12:31:57;;;;;;;46.85;22.23;;;5.80;95.60;;;;;;5013927;28;20041;-88
2020/12/08 12:34:22;;;;;;;43.75;21.83;;;5.80;95.60;;;;;;5012298;28;20050;-87
2020/12/08 12:36:50;;;;;;;44.83;20.60;;;5.90;95.70;;;;;;4991446;28;20490;-87
2020/12/08 12:39:16;;;;;;;45.80;21.27;;;5.90;95.70;;;;;;5010044;28;20026;-88
2020/12/08 12:41:42;;;;;;;42.55;21.08;;;5.90;95.70;;;;;;4998173;28;20048;-87
2020/12/08 12:44:08;;;;;;;40.53;20.08;;;6.00;95.70;;;;;;4999680;28;20468;-87
2020/12/08 12:46:34;;;;;;;42.90;21.27;;;6.00;96.00;;;;;;4995964;28;20112;-88
2020/12/08 12:49:01;;;;;;;51.75;21.95;;;6.00;95.70;;;;;;4985898;28;20117;-88
2020/12/08 12:51:27;;;;;;;46.67;21.02;;;6.00;95.70;;;;;;4993602;28;20036;-88
2020/12/08 12:53:53;;;;;;;46.38;21.55;;;6.00;95.70;;;;;;5009998;28;20070;-89
2020/12/08 12:56:23;;;;;;;41.58;20.17;;;6.00;95.70;;;;;;5008762;28;20018;-88
2020/12/08 12:58:50;;;;;;;42.05;20.48;;;6.10;95.70;;;;;;5009321;28;20515;-89
2020/12/08 13:01:16;;;;;;;49.00;22.85;;;6.10;95.70;;;;;;4996989;28;20085;-88
2020/12/08 13:03:42;;;;;;;46.97;22.92;;;6.10;95.70;;;;;;5004824;28;20069;-87
2020/12/08 13:06:11;;;;;;;51.78;23.75;;;6.20;95.60;;;;;;4980569;28;20030;-88
2020/12/08 13:08:37;;;;;;;51.80;23.70;;;6.20;95.60;;;;;;5014700;28;20076;-87
2020/12/08 13:11:06;;;;;;;43.67;21.42;;;6.20;95.60;;;;;;5009304;28;20038;-87